Thursday, April 17, 2014, 8:41 AM EDT

KDYL, Doylestown Airport

Location: Doylestown, PA, United States Lat: 40.333
Local Time: 8:41 AM EDT (12:41 GMT) Lon: -75.117
Time Zone: US/Eastern Elev: 393 ft

Show me the last for .
Show Decoded

2014-04-17 07:54 METAR KDYL 171154Z AUTO 03005KT 10SM CLR 02/M07 A3066 RMK AO2 SLP388 T00171067
                 10017 21006 53025 =
2014-04-17 06:54 METAR KDYL 171054Z AUTO 04003KT 10SM CLR M01/M08 A3064 RMK AO2 SLP380 T10061078
                 =
2014-04-17 05:54 METAR KDYL 170954Z AUTO 04004KT 10SM CLR M01/M08 A3061 RMK AO2 SLP370 T10061078
                 =
2014-04-17 04:54 METAR KDYL 170854Z AUTO 04005KT 10SM CLR 00/M08 A3058 RMK AO2 SLP363 T00001078
                 50003 =
2014-04-17 03:54 METAR KDYL 170754Z AUTO 04005KT 10SM CLR 00/M08 A3059 RMK AO2 SLP363 T00001083 =
2014-04-17 02:54 METAR KDYL 170654Z AUTO 03005KT 10SM CLR 00/M07 A3058 RMK AO2 SLP361 T00001072 =
2014-04-17 01:54 METAR KDYL 170554Z AUTO 05004KT 10SM CLR 01/M07 A3058 RMK AO2 SLP360 T00061067
                 10044 20000 51016 =
2014-04-17 00:54 METAR KDYL 170454Z AUTO 04003KT 10SM CLR 00/M06 A3056 RMK AO2 SLP356 T00001061
                 400781028 =
2014-04-16 23:54 METAR KDYL 170354Z AUTO 03003KT 10SM CLR 01/M07 A3055 RMK AO2 SLP352 T00111072 =
2014-04-16 22:54 METAR KDYL 170254Z AUTO 03003KT 10SM CLR 02/M07 A3053 RMK AO2 SLP344 T00221072
                 51025 =
2014-04-16 21:54 METAR KDYL 170154Z AUTO 03003KT 10SM CLR 03/M08 A3052 RMK AO2 SLP341 T00281078 =
2014-04-16 20:54 METAR KDYL 170054Z AUTO 00000KT 10SM CLR 04/M08 A3050 RMK AO2 SLP334 T00391083 =
2014-04-16 19:54 METAR KDYL 162354Z AUTO 36005KT 10SM CLR 04/M08 A3045 RMK AO2 SLP319 T00441083
                 10078 20044 53009 =
2014-04-16 18:54 METAR KDYL 162254Z AUTO 36009KT 10SM CLR 07/M08 A3044 RMK AO2 SLP315 T00671083 =
2014-04-16 17:54 METAR KDYL 162154Z AUTO 02008KT 10SM CLR 08/M09 A3043 RMK AO2 SLP310 T00781089 =
2014-04-16 16:54 METAR KDYL 162054Z AUTO 33011G18KT 10SM CLR 07/M07 A3042 RMK AO2 SLP309
                 T00721067 55000 =
2014-04-16 15:54 METAR KDYL 161954Z AUTO 33009G16KT 10SM CLR 07/M07 A3042 RMK AO2 SLP306
                 T00721067 =
2014-04-16 14:54 METAR KDYL 161854Z AUTO 33012G21KT 10SM CLR 07/M06 A3042 RMK AO2 SLP306
                 T00671061 =
2014-04-16 13:54 METAR KDYL 161754Z AUTO 34014G19KT 10SM CLR 06/M06 A3042 RMK AO2 SLP308
                 T00611061 10061 21022 51018 =
2014-04-16 12:54 METAR KDYL 161654Z AUTO 01010G18KT 10SM CLR 05/M07 A3041 RMK AO2 SLP305
                 T00501072 =
2014-04-16 11:54 METAR KDYL 161554Z AUTO 35009G18KT 320V020 10SM CLR 04/M07 A3041 RMK AO2 SLP303
                 T00391072 =
2014-04-16 10:54 METAR KDYL 161454Z AUTO 31013G19KT 10SM CLR 02/M08 A3037 RMK AO2 SLP291
                 T00171078 53029 =
2014-04-16 09:54 METAR KDYL 161354Z AUTO 35013G25KT 10SM CLR 01/M09 A3034 RMK AO2 SLP280
                 T00061094 =
2014-04-16 08:54 METAR KDYL 161254Z AUTO 33012G21KT 10SM CLR M01/M10 A3031 RMK AO2 SLP271
                 T10111100 =

Support USWX by starting your Amazon purchase here.